createdAt,value
2023-04-12T00:02:20.125Z,12.87
2023-04-12T00:04:49.334Z,12.60
2023-04-12T00:07:18.397Z,13.06
2023-04-12T00:09:44.734Z,12.97
2023-04-12T00:12:11.031Z,13.02
2023-04-12T00:14:37.323Z,13.11
2023-04-12T00:17:03.704Z,13.28
2023-04-12T00:19:31.035Z,13.24
2023-04-12T00:21:57.501Z,13.13
2023-04-12T00:24:26.118Z,13.26
2023-04-12T00:26:52.423Z,13.25
2023-04-12T00:29:18.710Z,13.43
2023-04-12T00:31:45.125Z,13.46
2023-04-12T00:34:11.807Z,13.36
2023-04-12T00:36:38.098Z,13.30
2023-04-12T00:39:04.408Z,13.16
2023-04-12T00:41:30.718Z,13.45
2023-04-12T00:43:57.364Z,13.28
2023-04-12T00:46:23.759Z,13.23
2023-04-12T00:48:50.321Z,12.84
2023-04-12T00:51:18.168Z,13.27
2023-04-12T00:53:44.712Z,13.30
2023-04-12T00:56:12.057Z,13.21
2023-04-12T00:58:38.381Z,13.08
2023-04-12T01:01:04.735Z,12.77
2023-04-12T01:03:31.257Z,13.03
2023-04-12T01:06:17.948Z,13.03
2023-04-12T01:08:45.327Z,13.16
2023-04-12T01:11:26.783Z,13.32
2023-04-12T01:14:03.220Z,13.07
2023-04-12T01:16:44.321Z,12.88
2023-04-12T01:19:19.721Z,13.13
2023-04-12T01:21:52.752Z,13.33
2023-04-12T01:24:41.568Z,13.16
2023-04-12T01:27:11.215Z,13.37
2023-04-12T01:29:37.530Z,13.21
2023-04-12T01:32:04.746Z,13.20
2023-04-12T01:34:31.649Z,13.21
2023-04-12T01:36:58.622Z,13.19
2023-04-12T01:39:25.188Z,13.51
2023-04-12T01:41:51.498Z,13.55
2023-04-12T01:44:18.007Z,13.58
2023-04-12T01:46:44.747Z,13.46
2023-04-12T01:49:12.874Z,13.55
2023-04-12T01:51:42.654Z,13.66
2023-04-12T01:54:12.970Z,13.79
2023-04-12T01:56:40.789Z,13.80
2023-04-12T01:59:07.385Z,13.38
2023-04-12T02:01:33.839Z,13.64
2023-04-12T02:04:01.166Z,13.53
2023-04-12T02:06:27.929Z,13.48
2023-04-12T02:08:58.560Z,13.71
2023-04-12T02:11:24.933Z,13.69
2023-04-12T02:13:51.220Z,13.59
2023-04-12T02:16:17.777Z,13.59
2023-04-12T02:18:44.309Z,13.61
2023-04-12T02:21:10.591Z,13.52
2023-04-12T02:23:36.905Z,13.55
2023-04-12T02:26:03.632Z,13.63
2023-04-12T02:28:30.038Z,13.34
2023-04-12T02:30:56.706Z,13.23
2023-04-12T02:33:25.443Z,13.18
2023-04-12T02:35:52.345Z,13.38
2023-04-12T02:38:18.821Z,13.53
2023-04-12T02:40:45.196Z,13.29
2023-04-12T02:43:11.573Z,13.30
2023-04-12T02:45:38.132Z,13.10
2023-04-12T02:48:05.363Z,13.50
2023-04-12T02:50:31.761Z,13.37
2023-04-12T02:52:58.295Z,13.12
2023-04-12T02:55:25.693Z,13.26
2023-04-12T02:57:52.143Z,13.52
2023-04-12T03:00:18.499Z,13.49
2023-04-12T03:02:45.056Z,13.46
2023-04-12T03:05:12.229Z,13.57
2023-04-12T03:07:38.689Z,13.08
2023-04-12T03:10:07.140Z,13.37
2023-04-12T03:12:33.521Z,12.97
2023-04-12T03:14:59.850Z,13.48
2023-04-12T03:17:26.226Z,13.36
2023-04-12T03:19:52.579Z,13.64
2023-04-12T03:22:18.865Z,13.56
2023-04-12T03:24:46.433Z,13.62
2023-04-12T03:27:12.763Z,13.71
2023-04-12T03:29:39.016Z,13.73
2023-04-12T03:32:05.477Z,13.59
2023-04-12T03:34:34.866Z,13.64
2023-04-12T03:37:01.659Z,13.56
2023-04-12T03:39:28.246Z,13.58
2023-04-12T03:41:54.695Z,13.41
2023-04-12T03:44:21.422Z,13.73
2023-04-12T03:46:48.687Z,13.96
2023-04-12T03:49:16.465Z,13.59
2023-04-12T03:51:43.095Z,13.16
2023-04-12T03:54:10.274Z,13.72
2023-04-12T03:56:36.569Z,13.55
2023-04-12T03:59:02.901Z,13.50
2023-04-12T04:01:29.195Z,13.69
2023-04-12T04:03:55.800Z,13.36
2023-04-12T04:06:22.936Z,13.37
2023-04-12T04:08:49.352Z,13.50
2023-04-12T04:11:16.285Z,13.26
2023-04-12T04:13:42.623Z,13.34
2023-04-12T04:16:11.932Z,13.37
2023-04-12T04:18:38.240Z,13.58
2023-04-12T04:21:04.644Z,13.23
2023-04-12T04:23:38.899Z,12.90
2023-04-12T04:26:11.476Z,12.89
2023-04-12T04:28:38.508Z,13.05
2023-04-12T04:31:06.330Z,13.01
2023-04-12T04:33:33.268Z,12.90
2023-04-12T04:35:59.612Z,12.87
2023-04-12T04:38:26.258Z,12.97
2023-04-12T04:40:55.609Z,12.98
2023-04-12T04:43:22.025Z,12.83
2023-04-12T04:45:51.426Z,13.01
2023-04-12T04:48:18.745Z,12.87
2023-04-12T04:50:45.055Z,12.85
2023-04-12T04:53:11.438Z,12.58
2023-04-12T04:55:37.830Z,12.78
2023-04-12T04:58:06.231Z,13.11
2023-04-12T05:00:32.567Z,13.28
2023-04-12T05:02:59.001Z,13.45
2023-04-12T05:05:26.069Z,13.23
2023-04-12T05:07:52.455Z,13.33
2023-04-12T05:10:19.036Z,13.26
2023-04-12T05:12:45.395Z,13.69
2023-04-12T05:15:12.405Z,13.54
2023-04-12T05:17:38.944Z,13.91
2023-04-12T05:20:07.833Z,13.70
2023-04-12T05:22:34.414Z,13.92
2023-04-12T05:25:01.352Z,13.79
2023-04-12T05:27:30.876Z,13.97
2023-04-12T05:29:57.458Z,14.02
2023-04-12T05:32:26.875Z,14.09
2023-04-12T05:34:53.260Z,14.17
2023-04-12T05:37:19.646Z,14.16
2023-04-12T05:39:45.987Z,13.70
2023-04-12T05:42:12.565Z,14.03
2023-04-12T05:44:38.858Z,14.09
2023-04-12T05:47:05.260Z,14.27
2023-04-12T05:49:31.694Z,14.55
2023-04-12T05:51:58.376Z,14.54
2023-04-12T05:54:25.514Z,14.15
2023-04-12T05:56:54.301Z,14.28
2023-04-12T05:59:20.712Z,14.56
2023-04-12T06:01:47.354Z,14.38
2023-04-12T06:04:14.758Z,14.75
2023-04-12T06:06:41.260Z,14.76
2023-04-12T06:09:07.674Z,14.66
2023-04-12T06:11:33.940Z,14.38
2023-04-12T06:14:03.346Z,14.76
2023-04-12T06:16:29.812Z,14.83
2023-04-12T06:18:56.586Z,15.08
2023-04-12T06:21:23.168Z,14.81
2023-04-12T06:23:49.495Z,14.58
2023-04-12T06:26:17.980Z,14.90
2023-04-12T06:28:44.943Z,15.12
2023-04-12T06:31:11.377Z,15.21
2023-04-12T06:33:37.780Z,15.29
2023-04-12T06:36:04.500Z,15.38
2023-04-12T06:38:30.874Z,15.60
2023-04-12T06:40:57.147Z,15.63
2023-04-12T06:43:23.733Z,15.67
2023-04-12T06:45:50.291Z,15.44
2023-04-12T06:48:16.632Z,15.63
2023-04-12T06:50:42.938Z,15.62
2023-04-12T06:53:09.435Z,14.98
2023-04-12T06:55:35.939Z,15.69
2023-04-12T06:58:02.386Z,15.69
2023-04-12T07:00:28.921Z,15.33
2023-04-12T07:02:55.550Z,15.56
2023-04-12T07:05:22.245Z,15.81
2023-04-12T07:07:48.583Z,15.84
2023-04-12T07:10:14.866Z,16.22
2023-04-12T07:12:41.938Z,16.46
2023-04-12T07:15:08.668Z,15.96
2023-04-12T07:17:35.289Z,16.87
2023-04-12T07:20:01.671Z,16.30
2023-04-12T07:22:28.062Z,16.99
2023-04-12T07:24:54.643Z,16.87
2023-04-12T07:27:21.029Z,17.10
2023-04-12T07:29:47.362Z,16.96
2023-04-12T07:32:13.720Z,16.70
2023-04-12T07:34:40.365Z,17.32
2023-04-12T07:37:06.823Z,17.50
2023-04-12T07:39:34.877Z,17.90
2023-04-12T07:42:01.725Z,17.65
2023-04-12T07:44:28.045Z,17.07
2023-04-12T07:46:54.403Z,17.20
2023-04-12T07:49:20.803Z,17.06
2023-04-12T07:51:47.412Z,17.90
2023-04-12T07:54:13.730Z,17.75
2023-04-12T07:56:40.038Z,17.73
2023-04-12T07:59:06.556Z,17.94
2023-04-12T08:01:32.865Z,18.47
2023-04-12T08:03:59.312Z,17.69
2023-04-12T08:06:29.416Z,18.22
2023-04-12T08:08:57.444Z,18.19
2023-04-12T08:11:23.970Z,18.01
2023-04-12T08:13:50.312Z,18.67
2023-04-12T08:16:16.798Z,18.82
2023-04-12T08:18:43.158Z,18.90
2023-04-12T08:21:09.886Z,18.59
2023-04-12T08:23:36.201Z,19.20
2023-04-12T08:26:05.470Z,19.06
2023-04-12T08:28:32.585Z,19.36
2023-04-12T08:30:59.550Z,19.14
2023-04-12T08:33:26.149Z,19.49
2023-04-12T08:35:52.930Z,19.38
2023-04-12T08:38:20.820Z,19.40
2023-04-12T08:40:50.311Z,19.33
2023-04-12T08:43:16.651Z,19.08
2023-04-12T08:45:43.054Z,19.07
2023-04-12T08:48:09.452Z,18.42
2023-04-12T08:50:36.086Z,18.42
2023-04-12T08:53:02.394Z,18.20
2023-04-12T08:55:28.869Z,18.64
2023-04-12T08:57:58.549Z,18.41
2023-04-12T09:00:25.789Z,18.29
2023-04-12T09:02:52.591Z,18.02
2023-04-12T09:05:19.300Z,18.15
2023-04-12T09:07:45.803Z,17.52
2023-04-12T09:10:12.070Z,17.87
2023-04-12T09:12:47.553Z,17.98
2023-04-12T09:15:15.233Z,18.59
2023-04-12T09:17:42.263Z,18.87
2023-04-12T09:20:29.198Z,18.63
2023-04-12T09:22:55.879Z,18.33
2023-04-12T09:25:38.499Z,18.72
2023-04-12T09:28:05.641Z,18.10
2023-04-12T09:30:33.843Z,18.75
2023-04-12T09:33:10.557Z,18.12
2023-04-12T09:35:36.969Z,19.04
2023-04-12T09:38:09.762Z,18.34
2023-04-12T09:40:36.471Z,18.40
2023-04-12T09:43:03.618Z,18.05
2023-04-12T09:45:31.595Z,18.34
2023-04-12T09:47:57.977Z,18.71
2023-04-12T09:50:25.740Z,18.98
2023-04-12T09:52:52.949Z,19.26
2023-04-12T09:55:19.275Z,19.25
2023-04-12T09:57:46.317Z,19.43
2023-04-12T10:00:17.219Z,19.49
2023-04-12T10:02:51.573Z,19.53
2023-04-12T10:05:19.733Z,19.35
2023-04-12T10:07:46.738Z,19.60
2023-04-12T10:10:13.637Z,20.04
2023-04-12T10:12:40.948Z,19.28
2023-04-12T10:15:12.800Z,19.32
2023-04-12T10:17:45.190Z,19.83
2023-04-12T10:20:12.305Z,19.55
2023-04-12T10:22:39.618Z,19.40
2023-04-12T10:25:06.834Z,19.60
2023-04-12T10:27:33.205Z,19.17
2023-04-12T10:30:18.218Z,19.19
2023-04-12T10:32:44.637Z,19.18
2023-04-12T10:35:11.610Z,19.61
2023-04-12T10:37:56.912Z,18.81
2023-04-12T10:40:23.211Z,19.10
2023-04-12T10:42:49.509Z,18.51
2023-04-12T10:45:31.141Z,18.52
2023-04-12T10:48:01.902Z,19.01
2023-04-12T10:50:32.213Z,18.43
2023-04-12T10:53:15.255Z,18.57
2023-04-12T10:55:44.588Z,19.21
2023-04-12T10:58:11.408Z,19.42
2023-04-12T11:00:59.225Z,19.29
2023-04-12T11:03:26.320Z,18.99
2023-04-12T11:06:13.124Z,19.14
2023-04-12T11:08:46.281Z,19.26
2023-04-12T11:11:19.469Z,19.23
2023-04-12T11:13:45.767Z,19.56
2023-04-12T11:16:15.303Z,19.18
2023-04-12T11:18:41.768Z,19.04
2023-04-12T11:21:08.150Z,19.35
2023-04-12T11:23:36.343Z,18.91
2023-04-12T11:26:04.003Z,19.32
2023-04-12T11:28:33.079Z,19.69
2023-04-12T11:31:01.212Z,19.57
2023-04-12T11:33:37.424Z,19.06
2023-04-12T11:36:07.547Z,19.55
2023-04-12T11:38:34.835Z,18.69
2023-04-12T11:41:01.242Z,19.19
2023-04-12T11:43:27.584Z,19.14
2023-04-12T11:45:58.536Z,19.44
2023-04-12T11:48:26.607Z,19.64
2023-04-12T11:51:07.775Z,19.32
2023-04-12T11:53:37.200Z,19.43
2023-04-12T11:56:03.545Z,19.38
2023-04-12T11:58:30.111Z,19.37
2023-04-12T12:00:57.201Z,19.19
2023-04-12T12:03:23.834Z,19.63
2023-04-12T12:05:50.609Z,19.18
2023-04-12T12:08:17.125Z,19.68
2023-04-12T12:10:59.974Z,19.85
2023-04-12T12:13:49.021Z,19.00
2023-04-12T12:16:15.568Z,19.49
2023-04-12T12:18:42.748Z,19.61
2023-04-12T12:21:09.842Z,19.84
2023-04-12T12:23:36.255Z,20.17
2023-04-12T12:26:18.535Z,20.13
2023-04-12T12:28:48.944Z,20.01
2023-04-12T12:31:18.025Z,20.04
2023-04-12T12:34:00.352Z,19.61
2023-04-12T12:36:33.590Z,19.78
2023-04-12T12:39:07.276Z,19.89
2023-04-12T12:41:34.026Z,20.06
2023-04-12T12:44:00.394Z,19.85
2023-04-12T12:46:34.296Z,19.63
2023-04-12T12:49:11.046Z,19.65
2023-04-12T12:51:37.426Z,18.80
2023-04-12T12:54:03.759Z,19.22
2023-04-12T12:56:30.216Z,19.42
2023-04-12T12:58:56.711Z,19.26
2023-04-12T13:01:23.412Z,19.67
2023-04-12T13:03:50.110Z,19.44
2023-04-12T13:06:16.611Z,19.56
2023-04-12T13:08:42.903Z,19.61
2023-04-12T13:11:09.225Z,19.90
2023-04-12T13:13:35.520Z,19.90
2023-04-12T13:16:01.953Z,19.97
2023-04-12T13:18:28.423Z,19.60
2023-04-12T13:20:54.703Z,19.98
2023-04-12T13:23:21.005Z,19.98
2023-04-12T13:25:47.436Z,20.14
2023-04-12T13:28:16.725Z,19.84
2023-04-12T13:30:43.478Z,20.47
2023-04-12T13:33:09.875Z,20.61
2023-04-12T13:35:36.232Z,20.69
2023-04-12T13:38:02.606Z,20.48
2023-04-12T13:40:29.188Z,21.04
2023-04-12T13:42:55.605Z,21.48
2023-04-12T13:45:22.306Z,21.95
2023-04-12T13:47:48.726Z,22.46
2023-04-12T13:50:15.316Z,22.74
2023-04-12T13:52:41.686Z,22.39
2023-04-12T13:55:08.420Z,22.65
2023-04-12T13:57:38.026Z,23.03
2023-04-12T14:00:04.659Z,22.09
2023-04-12T14:02:31.654Z,22.45
2023-04-12T14:04:58.129Z,22.71
2023-04-12T14:07:24.524Z,22.34
2023-04-12T14:09:50.879Z,22.28
2023-04-12T14:12:17.186Z,21.96
2023-04-12T14:14:43.483Z,22.38
2023-04-12T14:17:09.885Z,22.15
2023-04-12T14:19:36.285Z,21.99
2023-04-12T14:22:02.672Z,21.98
2023-04-12T14:24:29.033Z,22.19
2023-04-12T14:26:57.182Z,22.50
2023-04-12T14:29:23.586Z,22.07
2023-04-12T14:31:49.883Z,22.33
2023-04-12T14:34:16.392Z,22.65
2023-04-12T14:36:42.713Z,22.56
2023-04-12T14:39:11.275Z,22.53
2023-04-12T14:41:39.896Z,22.30
2023-04-12T14:44:06.192Z,22.21
2023-04-12T14:46:32.646Z,22.30
2023-04-12T14:49:01.125Z,22.11
2023-04-12T14:51:32.015Z,21.84
2023-04-12T14:53:58.704Z,21.59
2023-04-12T14:56:29.233Z,21.60
2023-04-12T14:58:56.526Z,21.45
2023-04-12T15:01:23.536Z,21.58
2023-04-12T15:03:51.942Z,21.41
2023-04-12T15:06:19.005Z,21.51
2023-04-12T15:08:45.767Z,21.81
2023-04-12T15:11:12.127Z,21.87
2023-04-12T15:13:40.179Z,22.38
2023-04-12T15:16:08.785Z,22.22
2023-04-12T15:21:56.757Z,22.14
2023-04-12T15:24:23.371Z,21.96
2023-04-12T15:26:50.832Z,21.88
2023-04-12T15:29:17.247Z,21.88
2023-04-12T15:31:43.702Z,21.86
2023-04-12T15:34:10.417Z,21.68
2023-04-12T15:36:37.223Z,21.90
2023-04-12T15:39:04.948Z,22.18
2023-04-12T15:41:37.076Z,22.15
2023-04-12T15:44:04.101Z,21.95
2023-04-12T15:46:30.642Z,21.73
2023-04-12T15:49:00.163Z,21.68
2023-04-12T15:51:27.276Z,21.59
2023-04-12T15:53:53.861Z,21.53
2023-04-12T15:56:24.125Z,21.53
2023-04-12T15:58:57.645Z,21.57
2023-04-12T16:01:24.656Z,21.43
2023-04-12T16:03:51.457Z,21.44
2023-04-12T16:06:21.353Z,21.34
2023-04-12T16:08:48.377Z,21.29
2023-04-12T16:11:18.088Z,20.88
2023-04-12T16:13:47.910Z,20.94
2023-04-12T16:16:15.329Z,21.10
2023-04-12T16:18:41.983Z,21.07
2023-04-12T16:21:09.147Z,21.12
2023-04-12T16:23:36.725Z,21.05
2023-04-12T16:26:03.255Z,20.88
2023-04-12T16:28:29.640Z,20.79
2023-04-12T16:30:56.340Z,20.74
2023-04-12T16:33:22.754Z,20.79
2023-04-12T16:35:49.084Z,20.81
2023-04-12T16:38:17.685Z,20.72
2023-04-12T16:40:44.156Z,20.61
2023-04-12T16:43:10.673Z,20.63
2023-04-12T16:45:37.514Z,20.73
2023-04-12T16:48:03.879Z,20.75
2023-04-12T16:50:30.339Z,20.74
2023-04-12T16:52:56.714Z,20.91
2023-04-12T16:55:23.089Z,21.13
2023-04-12T16:57:52.928Z,21.21
2023-04-12T17:00:20.574Z,21.12
2023-04-12T17:02:48.496Z,20.93
2023-04-12T17:05:17.864Z,20.84
2023-04-12T17:07:47.706Z,20.56
2023-04-12T17:10:17.018Z,20.41
2023-04-12T17:12:46.781Z,20.19
2023-04-12T17:15:16.106Z,20.07
2023-04-12T17:17:49.822Z,19.93
2023-04-12T17:20:16.801Z,19.82
2023-04-12T17:22:43.118Z,19.89
2023-04-12T17:25:09.852Z,19.90
2023-04-12T17:27:37.309Z,19.84
2023-04-12T17:30:04.266Z,19.90
2023-04-12T17:32:30.701Z,20.05
2023-04-12T17:34:57.008Z,19.85
2023-04-12T17:37:23.751Z,19.80
2023-04-12T17:39:50.468Z,17.40
2023-04-12T17:42:17.669Z,17.16
2023-04-12T17:44:44.073Z,16.11
2023-04-12T17:47:10.366Z,16.10
2023-04-12T17:49:37.078Z,15.68
2023-04-12T17:52:03.686Z,16.04
2023-04-12T17:54:30.549Z,16.45
2023-04-12T17:56:57.673Z,16.63
2023-04-12T17:59:24.560Z,17.38
2023-04-12T18:01:50.979Z,16.49
2023-04-12T18:04:17.522Z,16.07
2023-04-12T18:06:43.880Z,15.88
2023-04-12T18:09:13.232Z,16.55
2023-04-12T18:11:42.186Z,15.81
2023-04-12T18:14:11.995Z,16.54
2023-04-12T18:16:38.790Z,16.83
2023-04-12T18:19:05.813Z,17.09
2023-04-12T18:21:32.439Z,17.26
2023-04-12T18:24:01.006Z,17.35
2023-04-12T18:26:27.545Z,17.36
2023-04-12T18:28:54.170Z,17.88
2023-04-12T18:31:20.614Z,17.94
2023-04-12T18:33:47.172Z,18.14
2023-04-12T18:36:13.451Z,18.32
2023-04-12T18:38:40.467Z,18.33
2023-04-12T18:41:06.770Z,17.71
2023-04-12T18:43:33.132Z,18.04
2023-04-12T18:45:59.480Z,18.23
2023-04-12T18:48:27.162Z,18.28
2023-04-12T18:50:53.531Z,18.46
2023-04-12T18:53:19.836Z,18.03
2023-04-12T18:55:46.381Z,17.79
2023-04-12T18:58:13.117Z,18.06
2023-04-12T19:00:41.417Z,18.17
2023-04-12T19:03:07.912Z,17.82
2023-04-12T19:05:37.389Z,18.03
2023-04-12T19:08:03.903Z,17.94
2023-04-12T19:10:32.936Z,17.74
2023-04-12T19:12:59.300Z,17.40
2023-04-12T19:15:25.674Z,17.05
2023-04-12T19:17:52.011Z,16.99
2023-04-12T19:20:18.461Z,16.88
2023-04-12T19:22:44.777Z,16.62
2023-04-12T19:25:11.122Z,16.46
2023-04-12T19:27:38.392Z,16.34
2023-04-12T19:30:04.953Z,16.20
2023-04-12T19:32:31.296Z,15.76
2023-04-12T19:34:57.636Z,15.22
2023-04-12T19:37:24.171Z,15.45
2023-04-12T19:39:50.474Z,15.65
2023-04-12T19:42:17.698Z,15.75
2023-04-12T19:44:44.061Z,15.70
2023-04-12T19:47:10.497Z,15.65
2023-04-12T19:49:37.342Z,15.86
2023-04-12T19:52:07.469Z,15.81
2023-04-12T19:54:33.798Z,15.65
2023-04-12T19:57:00.055Z,15.64
2023-04-12T19:59:30.692Z,15.59
2023-04-12T20:01:58.103Z,15.46
2023-04-12T20:04:24.578Z,15.17
2023-04-12T20:06:52.266Z,15.09
2023-04-12T20:09:18.697Z,15.10
2023-04-12T20:11:45.426Z,15.19
2023-04-12T20:14:11.736Z,15.13
2023-04-12T20:16:38.242Z,15.08
2023-04-12T20:19:04.960Z,14.94
2023-04-12T20:21:34.356Z,14.66
2023-04-12T20:24:01.457Z,14.76
2023-04-12T20:26:27.988Z,14.65
2023-04-12T20:28:57.321Z,14.63
2023-04-12T20:31:24.560Z,14.76
2023-04-12T20:33:51.212Z,14.83
2023-04-12T20:36:17.493Z,14.71
2023-04-12T20:38:43.841Z,14.77
2023-04-12T20:41:10.654Z,14.90
2023-04-12T20:43:46.480Z,15.01
2023-04-12T20:46:15.583Z,14.97
2023-04-12T20:48:46.512Z,14.86
2023-04-12T20:51:15.895Z,14.52
2023-04-12T20:53:48.280Z,14.43
2023-04-12T20:56:14.881Z,14.43
2023-04-12T20:58:41.819Z,14.26
2023-04-12T21:01:08.274Z,14.16
2023-04-12T21:03:35.803Z,14.13
2023-04-12T21:06:02.427Z,14.12
2023-04-12T21:08:30.866Z,14.10
2023-04-12T21:10:58.684Z,14.11
2023-04-12T21:13:26.429Z,14.22
2023-04-12T21:15:53.313Z,14.31
2023-04-12T21:18:20.264Z,14.38
2023-04-12T21:20:47.545Z,14.43
2023-04-12T21:23:17.932Z,14.31
2023-04-12T21:25:45.435Z,14.30
2023-04-12T21:28:12.451Z,14.39
2023-04-12T21:30:39.211Z,14.53
2023-04-12T21:33:05.581Z,14.60
2023-04-12T21:35:31.919Z,14.44
2023-04-12T21:37:58.247Z,14.43
2023-04-12T21:40:24.586Z,14.43
2023-04-12T21:42:50.858Z,14.51
2023-04-12T21:45:17.455Z,14.51
2023-04-12T21:47:44.077Z,14.45
2023-04-12T21:50:10.728Z,14.39
2023-04-12T21:52:37.395Z,14.49
2023-04-12T21:55:04.907Z,14.45
2023-04-12T21:57:31.838Z,14.42
2023-04-12T21:59:58.130Z,14.27
2023-04-12T22:02:25.102Z,14.29
2023-04-12T22:04:51.554Z,14.06
2023-04-12T22:07:17.852Z,14.03
2023-04-12T22:09:44.876Z,14.07
2023-04-12T22:12:11.963Z,13.96
2023-04-12T22:14:40.236Z,13.89
2023-04-12T22:17:06.760Z,14.00
2023-04-12T22:19:33.136Z,13.73
2023-04-12T22:21:59.600Z,13.91
2023-04-12T22:24:26.363Z,14.00
2023-04-12T22:26:56.154Z,14.02
2023-04-12T22:29:22.532Z,13.91
2023-04-12T22:31:48.824Z,13.72
2023-04-12T22:34:15.250Z,13.72
2023-04-12T22:36:42.000Z,13.80
2023-04-12T22:39:10.377Z,13.99
2023-04-12T22:41:37.904Z,13.74
2023-04-12T22:44:04.431Z,13.67
2023-04-12T22:46:33.710Z,13.58
2023-04-12T22:49:03.335Z,13.52
2023-04-12T22:51:30.070Z,13.48
2023-04-12T22:53:57.358Z,13.12
2023-04-12T22:56:25.384Z,13.26
2023-04-12T22:58:51.951Z,13.32
2023-04-12T23:01:18.704Z,13.36
2023-04-12T23:03:45.829Z,13.33
2023-04-12T23:06:13.027Z,13.36
2023-04-12T23:08:39.453Z,13.25
2023-04-12T23:11:06.281Z,13.21
2023-04-12T23:13:34.667Z,13.24
2023-04-12T23:16:05.661Z,13.09
2023-04-12T23:18:32.775Z,13.01
2023-04-12T23:21:01.098Z,12.99
2023-04-12T23:23:27.575Z,13.12
2023-04-12T23:25:54.811Z,13.06
2023-04-12T23:28:21.829Z,13.20
2023-04-12T23:30:49.612Z,13.16
2023-04-12T23:33:20.850Z,13.14
2023-04-12T23:35:58.501Z,13.09
2023-04-12T23:38:32.135Z,13.13
2023-04-12T23:41:03.962Z,13.14
2023-04-12T23:43:32.426Z,13.05
2023-04-12T23:45:58.840Z,12.97
2023-04-12T23:48:25.382Z,12.99
2023-04-12T23:50:51.882Z,12.96
2023-04-12T23:53:19.219Z,13.01
2023-04-12T23:55:51.053Z,12.89
2023-04-12T23:58:17.760Z,12.95
